Time;durP1;ratioP1;P1;durP2;ratioP2;P2;SDS_P1;SDS_P2;PMS_P1;PMS_P2;Temp;Humidity;BMP_temperature;BMP_pressure;BME280_temperature;BME280_humidity;BME280_pressure;Samples;Min_cycle;Max_cycle;Signal;HPM_P1;HPM_P2
2023/03/15 00:01:15;;;;;;;3.47;1.70;;;2.00;99.90;;;;;;5051374;28;20194;-71
2023/03/15 00:03:42;;;;;;;2.25;1.52;;;2.00;99.90;;;;;;5050853;28;20209;-71
2023/03/15 00:06:10;;;;;;;2.40;1.70;;;2.00;99.90;;;;;;5051203;28;20552;-71
2023/03/15 00:08:37;;;;;;;2.20;2.00;;;2.00;99.90;;;;;;5051169;28;20205;-69
2023/03/15 00:11:04;;;;;;;2.47;2.28;;;1.90;99.90;;;;;;5051064;28;20602;-69
2023/03/15 00:13:32;;;;;;;2.80;2.33;;;2.00;99.90;;;;;;5051063;28;20316;-72
2023/03/15 00:16:02;;;;;;;2.58;2.17;;;1.90;99.90;;;;;;5050868;28;20692;-69
2023/03/15 00:18:30;;;;;;;2.70;2.40;;;1.90;99.90;;;;;;5050772;28;20683;-71
2023/03/15 00:20:57;;;;;;;2.30;1.90;;;1.90;99.90;;;;;;5050782;28;20279;-70
2023/03/15 00:23:24;;;;;;;4.65;1.92;;;2.00;99.90;;;;;;5050966;28;20220;-71
2023/03/15 00:25:52;;;;;;;2.35;2.15;;;1.90;99.90;;;;;;5050360;28;20238;-71
2023/03/15 00:28:19;;;;;;;2.88;1.95;;;1.90;99.90;;;;;;5050989;28;20682;-71
2023/03/15 00:30:46;;;;;;;5.03;1.90;;;1.90;99.90;;;;;;5050568;28;20204;-68
2023/03/15 00:33:13;;;;;;;5.40;2.60;;;1.90;99.90;;;;;;5050883;28;20217;-68
2023/03/15 00:35:43;;;;;;;3.22;1.70;;;1.90;99.90;;;;;;5050263;28;20225;-68
2023/03/15 00:38:10;;;;;;;1.98;1.88;;;2.00;99.90;;;;;;5034707;28;20204;-71
2023/03/15 00:40:38;;;;;;;3.25;2.00;;;2.00;99.90;;;;;;5050311;28;20204;-71
2023/03/15 00:43:04;;;;;;;2.08;1.88;;;2.00;99.90;;;;;;5050541;28;20658;-68
2023/03/15 00:45:31;;;;;;;4.47;2.25;;;2.10;99.90;;;;;;5050357;28;20200;-69
2023/03/15 00:47:58;;;;;;;3.95;2.50;;;2.10;99.90;;;;;;5050324;28;20205;-69
2023/03/15 00:50:25;;;;;;;6.18;1.70;;;2.10;99.90;;;;;;5050623;28;20197;-69
2023/03/15 00:52:53;;;;;;;2.50;2.30;;;2.10;99.90;;;;;;5050282;28;20220;-69
2023/03/15 00:55:20;;;;;;;2.85;2.25;;;2.20;99.90;;;;;;5050156;28;20209;-69
2023/03/15 00:57:47;;;;;;;3.97;2.03;;;2.20;99.90;;;;;;5050185;28;20209;-69
2023/03/15 01:00:18;;;;;;;3.88;2.10;;;2.20;99.90;;;;;;5050502;28;20198;-69
2023/03/15 01:02:45;;;;;;;7.05;2.30;;;2.10;99.90;;;;;;5050531;28;20200;-68
2023/03/15 01:05:13;;;;;;;3.45;2.08;;;2.10;99.90;;;;;;5049956;28;20213;-69
2023/03/15 01:07:39;;;;;;;2.28;1.90;;;2.10;99.90;;;;;;5050457;28;20197;-71
2023/03/15 01:10:09;;;;;;;3.55;1.88;;;2.00;99.90;;;;;;5050120;28;20717;-71
2023/03/15 01:12:35;;;;;;;1.90;1.80;;;2.00;99.90;;;;;;5050213;28;20209;-70
2023/03/15 01:15:06;;;;;;;2.03;1.80;;;2.00;99.90;;;;;;5050150;28;20225;-69
2023/03/15 01:17:32;;;;;;;4.88;2.25;;;2.00;99.90;;;;;;5050626;28;20544;-69
2023/03/15 01:19:59;;;;;;;4.63;2.05;;;1.90;99.90;;;;;;5050466;28;20342;-69
2023/03/15 01:22:27;;;;;;;4.30;2.60;;;1.90;99.90;;;;;;5050364;28;20197;-69
2023/03/15 01:24:53;;;;;;;3.50;2.10;;;1.80;99.90;;;;;;5049762;28;20217;-69
2023/03/15 01:27:21;;;;;;;4.38;2.33;;;1.80;99.90;;;;;;5049928;28;20706;-69
2023/03/15 01:29:48;;;;;;;2.40;1.60;;;1.70;99.90;;;;;;5050243;28;20217;-69
2023/03/15 01:32:15;;;;;;;4.50;1.98;;;1.70;99.90;;;;;;5054429;28;20193;-69
2023/03/15 01:34:42;;;;;;;2.47;1.55;;;1.60;99.90;;;;;;5053912;28;20687;-69
2023/03/15 01:37:13;;;;;;;2.15;1.95;;;1.50;99.90;;;;;;5053882;28;20203;-69
2023/03/15 01:39:39;;;;;;;2.92;1.70;;;1.40;99.90;;;;;;5054004;28;20235;-69
2023/03/15 01:42:07;;;;;;;2.55;1.50;;;1.40;99.90;;;;;;5054214;28;20208;-69
2023/03/15 01:44:53;;;;;;;2.67;1.30;;;1.30;99.90;;;;;;5053928;28;20217;-69
2023/03/15 01:47:20;;;;;;;4.57;2.15;;;1.30;99.90;;;;;;5039341;28;20197;-70
2023/03/15 01:49:52;;;;;;;1.67;1.55;;;1.30;99.90;;;;;;5054046;28;20205;-69
2023/03/15 01:52:23;;;;;;;5.03;2.08;;;1.30;99.90;;;;;;5054108;28;20208;-69
2023/03/15 01:54:54;;;;;;;1.25;1.15;;;1.30;99.90;;;;;;5053513;28;20769;-70
2023/03/15 01:57:25;;;;;;;2.30;1.83;;;1.30;99.90;;;;;;5053857;28;20212;-69
2023/03/15 01:59:58;;;;;;;3.38;1.60;;;1.30;99.90;;;;;;5053899;28;20193;-69
2023/03/15 02:02:25;;;;;;;2.42;1.35;;;1.30;99.90;;;;;;5053817;28;20262;-69
2023/03/15 02:04:57;;;;;;;5.40;1.95;;;1.20;99.90;;;;;;5053346;28;20221;-69
2023/03/15 02:07:27;;;;;;;3.15;1.95;;;1.20;99.90;;;;;;5053423;28;20224;-69
2023/03/15 02:10:00;;;;;;;3.15;1.70;;;1.10;99.90;;;;;;5051104;28;20652;-69
2023/03/15 02:12:30;;;;;;;4.00;1.38;;;1.10;99.90;;;;;;5053499;28;20205;-69
2023/03/15 02:14:59;;;;;;;2.50;1.50;;;1.00;99.90;;;;;;5053257;28;20658;-69
2023/03/15 02:17:33;;;;;;;1.45;1.35;;;1.10;99.90;;;;;;5053129;28;20193;-69
2023/03/15 02:20:07;;;;;;;1.20;1.05;;;1.10;99.90;;;;;;5053334;28;20302;-69
2023/03/15 02:22:46;;;;;;;2.65;1.35;;;1.00;99.90;;;;;;5053209;28;20639;-69
2023/03/15 02:25:21;;;;;;;1.20;1.02;;;1.00;99.90;;;;;;5052602;28;20707;-69
2023/03/15 02:27:49;;;;;;;2.92;1.48;;;1.00;99.90;;;;;;5053073;28;20208;-69
2023/03/15 02:30:15;;;;;;;2.20;1.48;;;0.90;99.90;;;;;;5053065;28;20202;-69
2023/03/15 02:32:42;;;;;;;3.13;1.48;;;0.90;99.90;;;;;;5053164;28;20204;-69
2023/03/15 02:35:09;;;;;;;1.58;1.48;;;0.80;99.90;;;;;;5052357;28;20778;-69
2023/03/15 02:37:36;;;;;;;1.30;1.10;;;0.80;99.90;;;;;;5052916;28;20581;-69
2023/03/15 02:40:04;;;;;;;1.20;1.10;;;0.80;99.90;;;;;;5052843;28;20205;-69
2023/03/15 02:42:31;;;;;;;1.80;1.30;;;0.80;99.90;;;;;;5052762;28;20239;-69
2023/03/15 02:44:59;;;;;;;2.10;1.63;;;0.70;99.90;;;;;;5052656;28;20224;-69
2023/03/15 02:47:31;;;;;;;2.95;1.55;;;0.70;99.90;;;;;;5052838;28;20193;-69
2023/03/15 02:49:58;;;;;;;3.13;1.48;;;0.70;99.90;;;;;;5053018;28;20224;-69
2023/03/15 02:52:25;;;;;;;5.03;1.38;;;0.70;99.90;;;;;;5052598;28;20212;-69
2023/03/15 02:54:53;;;;;;;2.67;1.42;;;0.70;99.90;;;;;;5052695;28;20226;-69
2023/03/15 02:57:20;;;;;;;2.80;1.42;;;0.60;99.90;;;;;;5052847;28;20197;-69
2023/03/15 02:59:49;;;;;;;2.13;0.90;;;0.50;99.90;;;;;;5052515;28;20201;-69
2023/03/15 03:02:17;;;;;;;4.63;1.52;;;0.50;99.90;;;;;;5052372;28;20292;-69
2023/03/15 03:04:44;;;;;;;1.15;1.05;;;0.50;99.90;;;;;;5052244;28;20217;-69
2023/03/15 03:07:11;;;;;;;2.30;1.50;;;0.50;99.90;;;;;;5052230;28;20586;-69
2023/03/15 03:09:37;;;;;;;1.10;1.00;;;0.50;99.90;;;;;;5052434;28;20554;-69
2023/03/15 03:12:05;;;;;;;3.92;1.20;;;0.40;99.90;;;;;;5052547;28;20205;-69
2023/03/15 03:14:31;;;;;;;1.40;1.10;;;0.40;99.90;;;;;;5052087;28;20248;-69
2023/03/15 03:16:58;;;;;;;1.50;1.30;;;0.40;99.90;;;;;;5052104;28;20208;-69
2023/03/15 03:19:26;;;;;;;2.00;1.30;;;0.40;99.90;;;;;;5052364;28;20201;-70
2023/03/15 03:21:53;;;;;;;1.75;1.60;;;0.30;99.90;;;;;;5052016;28;20682;-69
2023/03/15 03:24:20;;;;;;;1.98;1.30;;;0.30;99.90;;;;;;5051913;28;20213;-69
2023/03/15 03:26:47;;;;;;;2.47;1.52;;;0.20;99.90;;;;;;5052105;28;20668;-69
2023/03/15 03:29:15;;;;;;;2.90;1.30;;;0.20;99.90;;;;;;5052175;28;20656;-69
2023/03/15 03:31:43;;;;;;;2.55;1.55;;;0.30;99.90;;;;;;5051913;28;20204;-70
2023/03/15 03:34:13;;;;;;;7.68;1.92;;;0.30;99.90;;;;;;5051737;28;20249;-70
2023/03/15 03:36:41;;;;;;;2.45;2.05;;;0.20;99.90;;;;;;5051645;28;20292;-70
2023/03/15 03:39:08;;;;;;;1.77;1.65;;;0.20;99.90;;;;;;5052055;28;20292;-70
2023/03/15 03:41:35;;;;;;;1.52;1.33;;;0.10;99.90;;;;;;5051821;28;20205;-70
2023/03/15 03:44:02;;;;;;;5.03;1.55;;;0.10;99.90;;;;;;5051388;28;20225;-70
2023/03/15 03:46:28;;;;;;;1.23;1.13;;;0.10;99.90;;;;;;5051612;28;20217;-70
2023/03/15 03:48:55;;;;;;;11.25;1.83;;;0.10;99.90;;;;;;5048904;28;20209;-70
2023/03/15 03:51:22;;;;;;;2.70;1.40;;;0.00;99.90;;;;;;5051766;28;20602;-69
2023/03/15 03:53:50;;;;;;;2.88;1.75;;;0.10;99.90;;;;;;5050659;28;20221;-70
2023/03/15 03:56:17;;;;;;;2.88;2.30;;;0.10;99.90;;;;;;5051195;28;20220;-69
2023/03/15 03:58:43;;;;;;;2.28;1.58;;;0.00;99.90;;;;;;5051485;28;20201;-70
2023/03/15 04:01:10;;;;;;;2.50;1.50;;;0.00;99.90;;;;;;5051272;28;20201;-70
2023/03/15 04:03:37;;;;;;;1.85;1.48;;;0.00;99.90;;;;;;5051233;28;20235;-69
2023/03/15 04:06:04;;;;;;;3.00;1.30;;;0.00;99.90;;;;;;5050919;28;20198;-69
2023/03/15 04:08:31;;;;;;;2.33;1.70;;;-0.10;99.90;;;;;;5051362;28;20231;-70
2023/03/15 04:11:02;;;;;;;1.20;1.08;;;-0.10;99.90;;;;;;5051055;28;20664;-70
2023/03/15 04:13:30;;;;;;;4.90;1.80;;;-0.10;99.90;;;;;;5050981;28;20225;-69
2023/03/15 04:15:57;;;;;;;1.33;1.20;;;-0.10;99.90;;;;;;5050611;28;20294;-69
2023/03/15 04:20:53;;;;;;;1.50;1.40;;;-0.20;99.90;;;;;;5036346;28;20210;-74
2023/03/15 04:23:21;;;;;;;2.58;1.60;;;-0.20;99.90;;;;;;5048686;28;20237;-73
2023/03/15 04:25:49;;;;;;;3.25;1.30;;;-0.20;99.90;;;;;;5032810;28;20201;-75
2023/03/15 04:28:18;;;;;;;4.15;1.65;;;-0.20;99.90;;;;;;5012559;28;20237;-75
2023/03/15 04:30:47;;;;;;;2.00;1.52;;;-0.20;99.90;;;;;;5021895;28;20669;-75
2023/03/15 04:33:14;;;;;;;6.05;1.80;;;-0.20;99.90;;;;;;5030817;28;20244;-75
2023/03/15 04:35:41;;;;;;;3.00;2.20;;;-0.30;99.90;;;;;;5030768;28;20214;-75
2023/03/15 04:38:08;;;;;;;1.55;1.45;;;-0.30;99.90;;;;;;5029263;28;20229;-75
2023/03/15 04:40:35;;;;;;;2.50;1.33;;;-0.30;99.90;;;;;;5024103;28;20208;-76
2023/03/15 04:43:04;;;;;;;2.22;1.60;;;-0.30;99.90;;;;;;5031308;28;20562;-75
2023/03/15 04:45:33;;;;;;;3.08;1.70;;;-0.40;99.90;;;;;;5030836;28;20842;-74
2023/03/15 04:48:01;;;;;;;3.80;1.90;;;-0.40;99.90;;;;;;5031142;28;20577;-74
2023/03/15 04:50:29;;;;;;;1.50;1.27;;;-0.40;99.90;;;;;;5031252;28;20205;-75
2023/03/15 04:52:57;;;;;;;2.38;2.08;;;-0.40;99.90;;;;;;5030462;28;20226;-75
2023/03/15 04:55:24;;;;;;;3.67;1.85;;;-0.40;99.90;;;;;;5029977;28;20225;-75
2023/03/15 04:57:50;;;;;;;2.15;1.80;;;-0.40;99.90;;;;;;5031042;28;20574;-76
2023/03/15 05:00:18;;;;;;;3.70;2.00;;;-0.40;99.90;;;;;;5030967;28;20224;-75
2023/03/15 05:02:53;;;;;;;4.57;2.90;;;-0.40;99.90;;;;;;5030794;28;20209;-74
2023/03/15 05:05:20;;;;;;;1.67;1.58;;;-0.40;99.90;;;;;;5027788;28;20827;-74
2023/03/15 05:07:47;;;;;;;2.25;2.05;;;-0.30;99.90;;;;;;5030558;28;20197;-75
2023/03/15 05:10:14;;;;;;;1.98;1.67;;;-0.30;99.90;;;;;;5030799;28;20554;-75
2023/03/15 05:12:41;;;;;;;5.30;2.28;;;-0.30;99.90;;;;;;5030415;28;20198;-75
2023/03/15 05:15:09;;;;;;;4.95;2.20;;;-0.40;99.90;;;;;;5029505;28;20218;-75
2023/03/15 05:17:36;;;;;;;3.13;2.53;;;-0.40;99.90;;;;;;5030441;28;20209;-74
2023/03/15 05:20:09;;;;;;;2.13;2.03;;;-0.40;99.90;;;;;;5031556;28;20395;-73
2023/03/15 05:22:36;;;;;;;2.97;1.90;;;-0.40;99.90;;;;;;5031785;28;20210;-74
2023/03/15 05:25:03;;;;;;;3.50;1.83;;;-0.40;99.90;;;;;;5031419;28;20232;-74
2023/03/15 05:27:31;;;;;;;3.38;1.77;;;-0.40;99.90;;;;;;5024423;28;20621;-75
2023/03/15 05:29:58;;;;;;;2.35;1.70;;;-0.50;99.90;;;;;;5030952;28;20236;-75
2023/03/15 05:32:25;;;;;;;2.72;2.45;;;-0.50;99.90;;;;;;5029677;28;20198;-75
2023/03/15 05:34:53;;;;;;;2.38;2.17;;;-0.50;99.90;;;;;;5030768;28;20229;-75
2023/03/15 05:37:21;;;;;;;2.45;2.05;;;-0.60;99.90;;;;;;5031145;28;20217;-74
2023/03/15 05:39:48;;;;;;;6.32;2.60;;;-0.60;99.90;;;;;;5031450;28;20579;-76
2023/03/15 05:42:20;;;;;;;6.03;3.17;;;-0.60;99.90;;;;;;5030547;28;20684;-76
2023/03/15 05:44:48;;;;;;;4.70;2.00;;;-0.60;99.90;;;;;;5029884;28;20937;-76
2023/03/15 05:47:15;;;;;;;2.95;2.20;;;-0.60;99.90;;;;;;5030989;28;20586;-76
2023/03/15 05:49:42;;;;;;;3.85;2.28;;;-0.60;99.90;;;;;;5030425;28;20226;-76
2023/03/15 05:52:09;;;;;;;6.63;2.97;;;-0.60;99.90;;;;;;5030502;28;20692;-76
2023/03/15 05:54:37;;;;;;;3.08;1.60;;;-0.60;99.90;;;;;;5030378;28;20214;-76
2023/03/15 05:57:04;;;;;;;2.05;1.85;;;-0.60;99.90;;;;;;5029571;28;20210;-76
2023/03/15 05:59:31;;;;;;;2.28;2.08;;;-0.60;99.90;;;;;;5020379;28;20649;-76
2023/03/15 06:01:58;;;;;;;1.77;1.65;;;-0.60;99.90;;;;;;5023032;28;20214;-76
2023/03/15 06:04:25;;;;;;;2.10;1.83;;;-0.50;99.90;;;;;;5012351;28;20218;-76
2023/03/15 06:06:51;;;;;;;2.90;2.08;;;-0.50;99.90;;;;;;5017490;28;20652;-76
2023/03/15 06:09:18;;;;;;;2.08;1.67;;;-0.50;99.90;;;;;;5011558;28;20210;-76
2023/03/15 06:11:46;;;;;;;6.00;2.13;;;-0.50;99.90;;;;;;5025897;28;20198;-76
2023/03/15 06:14:13;;;;;;;2.72;2.00;;;-0.40;99.90;;;;;;5031096;28;20221;-76
2023/03/15 06:16:40;;;;;;;4.07;2.17;;;-0.40;99.90;;;;;;5019005;28;20238;-76
2023/03/15 06:19:07;;;;;;;2.67;1.70;;;-0.30;99.90;;;;;;5031052;28;20449;-76
2023/03/15 06:21:34;;;;;;;4.80;2.25;;;-0.30;99.90;;;;;;5029622;28;20309;-76
2023/03/15 06:24:00;;;;;;;3.40;1.90;;;-0.20;99.90;;;;;;5024601;28;20225;-76
2023/03/15 06:26:27;;;;;;;6.78;2.30;;;-0.20;99.90;;;;;;5023842;28;20194;-76
2023/03/15 06:28:55;;;;;;;2.85;2.20;;;-0.10;99.90;;;;;;5022948;28;20206;-76
2023/03/15 06:31:22;;;;;;;4.00;2.00;;;-0.10;99.90;;;;;;5026119;28;20205;-76
2023/03/15 06:33:48;;;;;;;2.60;2.40;;;0.00;99.90;;;;;;5024288;28;20696;-77
2023/03/15 06:36:15;;;;;;;3.60;2.50;;;0.00;99.90;;;;;;5023766;28;20225;-75
2023/03/15 06:38:42;;;;;;;3.10;2.30;;;0.00;99.90;;;;;;5026337;28;20202;-75
2023/03/15 06:41:11;;;;;;;3.53;2.05;;;0.10;99.90;;;;;;5018014;28;20203;-76
2023/03/15 06:43:37;;;;;;;2.50;2.30;;;0.10;99.90;;;;;;5027563;28;20217;-75
2023/03/15 06:46:06;;;;;;;5.40;2.50;;;0.20;99.90;;;;;;5018354;28;20205;-75
2023/03/15 06:48:33;;;;;;;3.50;2.17;;;0.20;99.90;;;;;;5019247;28;20198;-75
2023/03/15 06:50:59;;;;;;;2.20;2.00;;;0.30;99.90;;;;;;5035175;28;20209;-75
2023/03/15 06:53:26;;;;;;;5.72;2.65;;;0.40;99.90;;;;;;5035153;28;20316;-74
2023/03/15 06:55:53;;;;;;;4.38;2.08;;;0.40;99.90;;;;;;5033054;28;20228;-75
2023/03/15 06:58:19;;;;;;;3.40;1.85;;;0.50;99.90;;;;;;5024520;28;20202;-75
2023/03/15 07:00:47;;;;;;;1.98;1.88;;;0.60;99.90;;;;;;5022454;28;20209;-75
2023/03/15 07:03:15;;;;;;;3.00;2.15;;;0.70;99.90;;;;;;5033945;28;20222;-75
2023/03/15 07:05:42;;;;;;;3.90;2.08;;;0.90;99.90;;;;;;5035061;28;20566;-75
2023/03/15 07:08:08;;;;;;;2.58;1.85;;;1.10;99.90;;;;;;5028434;28;20213;-75
2023/03/15 07:10:35;;;;;;;2.20;1.98;;;1.50;99.90;;;;;;5028569;28;20194;-75
2023/03/15 07:13:03;;;;;;;2.45;1.80;;;1.80;99.90;;;;;;5028508;28;20210;-75
2023/03/15 07:15:30;;;;;;;4.60;2.22;;;2.20;99.90;;;;;;5028728;28;20633;-75
2023/03/15 07:17:57;;;;;;;4.80;1.80;;;2.50;99.90;;;;;;5037201;28;20256;-75
2023/03/15 07:20:25;;;;;;;2.15;1.92;;;3.00;99.90;;;;;;5037471;28;20205;-74
2023/03/15 07:22:51;;;;;;;4.38;1.70;;;3.50;99.90;;;;;;5029734;28;20198;-75
2023/03/15 07:25:22;;;;;;;3.45;1.73;;;3.70;99.90;;;;;;5019634;28;20209;-75
2023/03/15 07:27:49;;;;;;;6.53;2.70;;;4.00;99.90;;;;;;5030465;28;20212;-75
2023/03/15 07:30:16;;;;;;;2.35;1.30;;;4.60;99.90;;;;;;5036836;28;20208;-75
2023/03/15 07:32:43;;;;;;;4.25;1.65;;;4.90;99.90;;;;;;5023072;28;20653;-75
2023/03/15 07:35:10;;;;;;;2.92;1.60;;;5.30;99.90;;;;;;5033212;28;20254;-75
2023/03/15 07:37:38;;;;;;;2.05;1.80;;;5.70;99.90;;;;;;5032373;28;20225;-75
2023/03/15 07:40:08;;;;;;;4.55;1.98;;;6.10;99.90;;;;;;5016786;28;20210;-74
2023/03/15 07:42:35;;;;;;;4.97;1.90;;;6.00;99.90;;;;;;5016509;28;20208;-75
2023/03/15 07:45:02;;;;;;;2.55;1.33;;;6.00;99.90;;;;;;5023351;28;20221;-76
2023/03/15 07:47:28;;;;;;;2.75;1.92;;;6.00;99.90;;;;;;5027697;28;20267;-74
2023/03/15 07:49:55;;;;;;;4.68;2.00;;;6.00;99.90;;;;;;5028013;28;20215;-74
2023/03/15 07:52:22;;;;;;;1.75;1.55;;;6.00;99.90;;;;;;5031870;28;20197;-74
2023/03/15 07:54:50;;;;;;;5.00;2.03;;;6.40;99.90;;;;;;5019840;28;20229;-74
2023/03/15 07:57:17;;;;;;;3.92;1.58;;;7.00;99.90;;;;;;5013394;28;20218;-75
2023/03/15 07:59:43;;;;;;;5.78;1.77;;;7.10;99.90;;;;;;5022460;28;20202;-75
2023/03/15 08:02:12;;;;;;;8.13;1.67;;;7.30;99.90;;;;;;5021511;28;20209;-75
2023/03/15 08:04:39;;;;;;;2.95;1.98;;;7.10;99.90;;;;;;5032689;28;20237;-75
2023/03/15 08:07:06;;;;;;;6.13;2.08;;;6.60;99.90;;;;;;5017350;28;20666;-73
2023/03/15 08:09:33;;;;;;;2.15;1.58;;;5.80;99.90;;;;;;5023254;28;20194;-72
2023/03/15 08:12:01;;;;;;;2.65;1.52;;;5.80;99.90;;;;;;5012663;28;20198;-74
2023/03/15 08:14:30;;;;;;;2.20;1.77;;;6.00;99.90;;;;;;5020494;28;20634;-74
2023/03/15 08:16:57;;;;;;;3.65;1.63;;;6.70;99.90;;;;;;5026611;28;20709;-75
2023/03/15 08:19:24;;;;;;;2.60;1.67;;;6.40;99.90;;;;;;5030053;28;20236;-74
2023/03/15 08:21:52;;;;;;;1.63;1.50;;;7.00;99.90;;;;;;5012471;28;20206;-74
2023/03/15 08:24:20;;;;;;;3.35;1.90;;;7.80;99.90;;;;;;5031203;28;20226;-75
2023/03/15 08:26:47;;;;;;;5.60;2.15;;;8.50;99.90;;;;;;5031875;28;20205;-74
2023/03/15 08:29:15;;;;;;;1.67;1.45;;;8.60;99.60;;;;;;5031652;28;20221;-74
2023/03/15 08:31:42;;;;;;;2.08;1.20;;;8.40;99.70;;;;;;5011416;28;20662;-75
2023/03/15 08:34:10;;;;;;;2.33;1.95;;;8.40;99.90;;;;;;5019279;28;20225;-74
2023/03/15 08:36:37;;;;;;;2.20;1.50;;;8.70;99.10;;;;;;5031325;28;20210;-74
2023/03/15 08:39:05;;;;;;;2.85;1.70;;;8.80;98.50;;;;;;5030696;28;20673;-74
2023/03/15 08:41:31;;;;;;;3.28;1.40;;;8.10;99.40;;;;;;5032643;28;20198;-74
2023/03/15 08:43:58;;;;;;;9.32;1.70;;;8.20;99.30;;;;;;5031439;28;20229;-75
2023/03/15 08:46:27;;;;;;;1.45;1.27;;;8.70;98.80;;;;;;5021322;28;20198;-75
2023/03/15 08:48:54;;;;;;;2.25;1.40;;;9.10;98.60;;;;;;5017925;28;20199;-75
2023/03/15 08:51:21;;;;;;;2.10;1.50;;;9.40;97.90;;;;;;5031941;28;20220;-74
2023/03/15 08:53:48;;;;;;;2.28;1.40;;;10.10;97.60;;;;;;5018481;28;20218;-76
2023/03/15 08:56:14;;;;;;;1.90;1.58;;;11.20;97.20;;;;;;5020120;28;20221;-76
2023/03/15 08:58:41;;;;;;;3.50;1.60;;;12.20;94.10;;;;;;5032401;28;20212;-75
2023/03/15 09:01:11;;;;;;;2.50;1.25;;;12.40;94.50;;;;;;5031934;28;20577;-76
2023/03/15 09:03:41;;;;;;;2.55;1.85;;;11.80;92.30;;;;;;5031014;28;20700;-75
2023/03/15 09:06:08;;;;;;;3.67;1.73;;;10.30;92.70;;;;;;5024884;28;20692;-75
2023/03/15 09:08:35;;;;;;;2.10;1.55;;;9.20;94.10;;;;;;5022530;28;20205;-75
2023/03/15 09:11:02;;;;;;;2.90;1.10;;;8.60;95.60;;;;;;5031368;28;20221;-74
2023/03/15 09:13:29;;;;;;;1.20;1.10;;;8.40;95.40;;;;;;5024037;28;20469;-75
2023/03/15 09:15:56;;;;;;;2.95;1.40;;;8.40;95.50;;;;;;5032211;28;20198;-73
2023/03/15 09:18:24;;;;;;;2.45;1.58;;;9.20;96.10;;;;;;5015126;28;20692;-75
2023/03/15 09:20:52;;;;;;;3.58;1.70;;;9.70;94.20;;;;;;5025093;28;20201;-76
2023/03/15 09:23:19;;;;;;;3.13;1.52;;;9.90;94.10;;;;;;5030759;28;20225;-75
2023/03/15 09:25:46;;;;;;;4.00;1.38;;;9.50;93.80;;;;;;5031235;28;20574;-74
2023/03/15 09:28:13;;;;;;;2.95;1.30;;;8.80;95.00;;;;;;5030847;28;20197;-74
2023/03/15 09:30:41;;;;;;;3.85;1.48;;;7.50;95.30;;;;;;5022413;28;20205;-75
2023/03/15 09:33:08;;;;;;;3.35;2.15;;;6.70;96.90;;;;;;5022608;28;20214;-74
2023/03/15 09:35:35;;;;;;;2.25;1.65;;;6.60;97.20;;;;;;5030025;28;20490;-74
2023/03/15 09:38:03;;;;;;;1.75;1.33;;;6.50;97.30;;;;;;5030386;28;20225;-74
2023/03/15 09:40:32;;;;;;;3.13;1.90;;;6.40;97.50;;;;;;5030204;28;20229;-74
2023/03/15 09:43:03;;;;;;;1.98;1.40;;;6.00;97.30;;;;;;5030034;28;20225;-74
2023/03/15 09:45:46;;;;;;;3.15;1.60;;;5.90;98.70;;;;;;5029938;28;20210;-74
2023/03/15 09:48:17;;;;;;;1.92;1.70;;;5.80;98.50;;;;;;5030673;28;20193;-74
2023/03/15 09:50:48;;;;;;;2.75;1.33;;;5.70;98.10;;;;;;5030821;28;20198;-73
2023/03/15 09:53:23;;;;;;;1.80;1.35;;;5.30;99.00;;;;;;5026317;28;20230;-74
2023/03/15 09:55:52;;;;;;;2.90;1.20;;;5.20;99.00;;;;;;5026649;28;20611;-74
2023/03/15 09:58:24;;;;;;;1.98;1.70;;;5.10;99.30;;;;;;5025394;28;20214;-75
2023/03/15 10:00:54;;;;;;;1.80;1.60;;;5.20;99.70;;;;;;5018757;28;20252;-75
2023/03/15 10:03:26;;;;;;;1.63;1.25;;;5.20;99.50;;;;;;5033378;28;20287;-78
2023/03/15 10:05:57;;;;;;;3.28;1.48;;;5.30;99.60;;;;;;5013548;28;20202;-75
2023/03/15 10:08:25;;;;;;;2.10;1.42;;;5.40;98.70;;;;;;5015867;28;20209;-78
2023/03/15 10:10:56;;;;;;;2.60;1.70;;;5.40;98.60;;;;;;5034583;28;20198;-77
2023/03/15 10:13:42;;;;;;;1.30;1.08;;;5.60;98.60;;;;;;5033879;28;20225;-75
2023/03/15 10:16:24;;;;;;;1.63;1.10;;;6.30;98.60;;;;;;5035948;28;20272;-77
2023/03/15 10:19:38;;;;;;;1.98;1.38;;;7.00;97.10;;;;;;5068961;22;20227;-95
2023/03/15 10:22:15;;;;;;;1.20;0.95;;;7.70;95.50;;;;;;5116222;22;20232;-73
2023/03/15 10:24:49;;;;;;;1.25;1.00;;;8.70;95.30;;;;;;5053099;28;20722;-71
2023/03/15 10:27:20;;;;;;;1.30;1.20;;;8.90;93.80;;;;;;5065210;28;20196;-71
2023/03/15 10:29:50;;;;;;;3.85;1.40;;;9.10;94.20;;;;;;5037913;28;20197;-72
2023/03/15 10:32:20;;;;;;;1.90;0.90;;;10.00;93.60;;;;;;5061833;28;20251;-71
2023/03/15 10:34:51;;;;;;;2.95;1.17;;;10.70;92.20;;;;;;5056877;28;20258;-72
2023/03/15 10:37:18;;;;;;;1.85;1.20;;;10.00;92.20;;;;;;5065047;28;20622;-72
2023/03/15 10:39:49;;;;;;;2.30;1.25;;;9.50;94.10;;;;;;5054036;28;20204;-71
2023/03/15 10:42:27;;;;;;;2.17;1.25;;;9.50;93.80;;;;;;5069345;28;20204;-72
2023/03/15 10:44:54;;;;;;;2.35;1.17;;;10.20;94.20;;;;;;5045954;28;20304;-71
2023/03/15 10:47:21;;;;;;;2.35;1.00;;;11.60;93.30;;;;;;5061045;28;20202;-70
2023/03/15 10:49:49;;;;;;;4.60;1.48;;;13.00;91.00;;;;;;5065037;28;20203;-70
2023/03/15 10:52:34;;;;;;;1.90;1.10;;;13.80;91.00;;;;;;5056860;28;20346;-71
2023/03/15 10:55:04;;;;;;;4.18;1.20;;;14.60;90.00;;;;;;5066593;28;20220;-72
2023/03/15 10:57:38;;;;;;;1.20;1.08;;;15.00;84.40;;;;;;5072459;28;20273;-73
2023/03/15 11:00:25;;;;;;;2.13;1.33;;;13.20;86.40;;;;;;5058451;28;20239;-71
2023/03/15 11:03:02;;;;;;;1.20;1.00;;;11.50;88.90;;;;;;5043785;28;20207;-73
2023/03/15 11:05:31;;;;;;;2.17;1.17;;;10.50;91.20;;;;;;5044148;28;20204;-73
2023/03/15 11:08:00;;;;;;;1.63;1.23;;;10.40;90.90;;;;;;5052863;28;20240;-72
2023/03/15 11:10:33;;;;;;;1.35;1.10;;;10.50;90.70;;;;;;5062056;28;20205;-71
2023/03/15 11:13:18;;;;;;;1.67;1.30;;;10.10;91.00;;;;;;5058720;28;20201;-71
2023/03/15 11:15:53;;;;;;;4.30;1.55;;;9.40;91.90;;;;;;5063736;28;20216;-72
2023/03/15 11:18:26;;;;;;;1.30;1.20;;;8.70;92.00;;;;;;5072567;28;20254;-71
2023/03/15 11:20:54;;;;;;;2.05;1.20;;;8.20;92.30;;;;;;5072048;28;20246;-71
2023/03/15 11:23:25;;;;;;;1.52;1.27;;;7.80;92.70;;;;;;5071246;28;20228;-73
2023/03/15 11:25:54;;;;;;;1.17;0.88;;;7.50;93.10;;;;;;5071085;28;20710;-72
2023/03/15 11:28:25;;;;;;;1.42;0.90;;;7.40;93.60;;;;;;5071744;28;20193;-72
2023/03/15 11:30:54;;;;;;;2.38;1.10;;;7.30;93.20;;;;;;5044265;28;20296;-72
2023/03/15 11:33:38;;;;;;;3.92;1.00;;;7.00;93.50;;;;;;5051920;28;20229;-72
2023/03/15 11:36:11;;;;;;;1.15;0.95;;;6.90;94.30;;;;;;5049836;28;20200;-72
2023/03/15 11:38:42;;;;;;;1.58;0.90;;;6.90;94.60;;;;;;5071953;28;20212;-72
2023/03/15 11:41:31;;;;;;;2.53;1.00;;;7.00;94.50;;;;;;5072025;28;20254;-72
2023/03/15 11:44:05;;;;;;;1.48;0.80;;;7.00;94.50;;;;;;5071832;28;20224;-72
2023/03/15 11:46:36;;;;;;;1.45;1.00;;;7.00;94.60;;;;;;5071449;28;20569;-72
2023/03/15 11:49:12;;;;;;;2.38;1.35;;;7.00;94.20;;;;;;5072103;28;20200;-72
2023/03/15 11:51:39;;;;;;;1.55;1.00;;;6.90;93.70;;;;;;5071579;28;20660;-72
2023/03/15 11:54:13;;;;;;;1.65;0.95;;;6.90;93.10;;;;;;5071560;28;20225;-73
2023/03/15 11:56:54;;;;;;;1.85;1.25;;;6.90;93.20;;;;;;5071031;28;20197;-72
2023/03/15 11:59:28;;;;;;;1.30;0.95;;;6.80;92.50;;;;;;5071544;28;20663;-71
2023/03/15 12:01:58;;;;;;;1.20;1.10;;;6.70;93.30;;;;;;5071839;28;20215;-71
2023/03/15 12:04:42;;;;;;;2.13;1.05;;;6.80;93.70;;;;;;5071653;28;20601;-71
2023/03/15 12:07:37;;;;;;;1.83;1.02;;;6.80;93.70;;;;;;5064791;28;20660;-72
2023/03/15 12:10:33;;;;;;;1.52;0.95;;;6.90;93.70;;;;;;5043425;28;20216;-71
2023/03/15 12:13:08;;;;;;;2.33;0.80;;;6.90;93.40;;;;;;5051046;28;20669;-71
2023/03/15 12:15:46;;;;;;;2.55;1.35;;;7.00;93.40;;;;;;5040196;28;20667;-71
2023/03/15 12:18:27;;;;;;;1.60;0.95;;;7.10;93.40;;;;;;5046569;28;20221;-71
2023/03/15 12:21:13;;;;;;;1.98;0.90;;;7.30;93.40;;;;;;5043214;28;20205;-72
2023/03/15 12:23:44;;;;;;;1.73;0.95;;;7.50;93.00;;;;;;5042457;28;20233;-72
2023/03/15 12:26:23;;;;;;;2.08;0.95;;;7.40;92.50;;;;;;5036013;28;20198;-71
2023/03/15 12:29:02;;;;;;;2.03;1.00;;;7.40;92.20;;;;;;5043310;28;20193;-71
2023/03/15 12:31:44;;;;;;;1.52;0.88;;;7.50;91.70;;;;;;5042841;28;20200;-70
2023/03/15 12:34:22;;;;;;;1.27;0.95;;;7.60;92.30;;;;;;5058352;28;20224;-70
2023/03/15 12:36:53;;;;;;;1.98;1.00;;;7.60;92.60;;;;;;5031093;28;20240;-72
2023/03/15 12:39:35;;;;;;;2.55;1.00;;;7.60;92.30;;;;;;5047209;28;20722;-71
2023/03/15 12:42:03;;;;;;;1.10;1.00;;;7.80;92.20;;;;;;5052953;28;20201;-70
2023/03/15 12:44:39;;;;;;;1.30;0.80;;;7.90;92.50;;;;;;5050032;28;20227;-70
2023/03/15 12:47:07;;;;;;;1.73;1.05;;;8.00;92.50;;;;;;5050598;28;20201;-71
2023/03/15 12:49:41;;;;;;;1.20;1.10;;;7.90;92.80;;;;;;5060978;28;20207;-71
2023/03/15 12:52:28;;;;;;;1.73;1.00;;;8.00;92.30;;;;;;5070774;28;20200;-71
2023/03/15 12:55:03;;;;;;;1.33;0.90;;;8.10;92.70;;;;;;5048164;28;20231;-71
2023/03/15 12:57:36;;;;;;;1.30;1.00;;;8.40;92.90;;;;;;5069641;28;20216;-71
2023/03/15 13:00:10;;;;;;;1.63;0.90;;;8.50;92.70;;;;;;5070358;28;20204;-72
2023/03/15 13:02:43;;;;;;;1.75;1.00;;;8.30;92.80;;;;;;5069570;28;20861;-72
2023/03/15 13:05:23;;;;;;;2.08;1.00;;;8.20;93.10;;;;;;5069782;28;20227;-71
2023/03/15 13:08:03;;;;;;;2.33;1.25;;;8.00;93.20;;;;;;5042453;28;20197;-72
2023/03/15 13:10:52;;;;;;;1.00;0.80;;;7.90;93.90;;;;;;5050055;28;20212;-72